Time;durP1;ratioP1;P1;durP2;ratioP2;P2;SDS_P1;SDS_P2;PMS_P1;PMS_P2;Temp;Humidity;BMP_temperature;BMP_pressure;BME280_temperature;BME280_humidity;BME280_pressure;Samples;Min_cycle;Max_cycle;Signal;HPM_P1;HPM_P2
2022/11/22 00:00:37;;;;;;;36.42;24.65;;;2.30;99.90;;;;;;5053832;28;20125;-64
2022/11/22 00:03:02;;;;;;;37.80;26.42;;;2.10;99.90;;;;;;5039942;28;20440;-65
2022/11/22 00:05:28;;;;;;;26.75;16.27;;;2.10;99.90;;;;;;5022226;28;20049;-65
2022/11/22 00:07:54;;;;;;;32.83;19.48;;;2.50;99.90;;;;;;5039371;28;20467;-65
2022/11/22 00:10:19;;;;;;;25.67;18.17;;;2.30;99.90;;;;;;5039186;28;20052;-65
2022/11/22 00:12:45;;;;;;;25.98;16.05;;;2.10;99.90;;;;;;5036139;28;20454;-64
2022/11/22 00:15:11;;;;;;;38.55;25.65;;;2.20;99.90;;;;;;5022702;28;20048;-65
2022/11/22 00:17:37;;;;;;;38.38;24.25;;;2.50;99.90;;;;;;5039984;28;20044;-65
2022/11/22 00:20:04;;;;;;;40.85;24.10;;;2.10;99.90;;;;;;5020069;28;20063;-66
2022/11/22 00:22:31;;;;;;;49.33;29.00;;;2.10;99.90;;;;;;5040433;28;20111;-67
2022/11/22 00:24:57;;;;;;;44.53;26.35;;;2.30;99.90;;;;;;5057872;28;20040;-65
2022/11/22 00:27:22;;;;;;;49.53;29.30;;;2.60;99.90;;;;;;5020823;28;20405;-65
2022/11/22 00:29:48;;;;;;;22.92;13.70;;;2.80;99.90;;;;;;5054791;28;20040;-65
2022/11/22 00:32:14;;;;;;;22.35;12.00;;;2.80;99.90;;;;;;5039574;28;20044;-64
2022/11/22 00:34:40;;;;;;;51.90;30.08;;;2.50;99.90;;;;;;5037427;28;20135;-66
2022/11/22 00:37:05;;;;;;;46.53;27.50;;;2.20;99.90;;;;;;5022686;28;20465;-65
2022/11/22 00:39:31;;;;;;;35.13;19.48;;;2.30;99.90;;;;;;5039019;28;20052;-66
2022/11/22 00:41:57;;;;;;;31.30;17.35;;;2.20;99.90;;;;;;5037156;28;20044;-64
2022/11/22 00:44:22;;;;;;;40.38;22.77;;;2.40;99.90;;;;;;5020978;28;20033;-64
2022/11/22 00:46:48;;;;;;;51.97;28.90;;;2.40;99.90;;;;;;5056960;28;20759;-64
2022/11/22 00:49:14;;;;;;;46.25;26.00;;;2.80;99.90;;;;;;5038271;28;20383;-63
2022/11/22 00:51:39;;;;;;;46.95;26.20;;;2.30;99.90;;;;;;5021928;28;20562;-64
2022/11/22 00:54:05;;;;;;;39.53;21.35;;;2.30;99.90;;;;;;5039147;28;20040;-62
2022/11/22 00:56:31;;;;;;;47.85;22.17;;;2.80;99.90;;;;;;5021860;28;20051;-63
2022/11/22 00:58:57;;;;;;;29.58;15.52;;;2.20;99.90;;;;;;5055519;28;20067;-66
2022/11/22 01:01:22;;;;;;;43.45;22.73;;;2.30;99.90;;;;;;5036286;28;20052;-64
2022/11/22 01:03:48;;;;;;;46.63;24.73;;;2.40;99.90;;;;;;5025807;28;20365;-63
2022/11/22 01:06:14;;;;;;;43.70;23.02;;;2.60;99.90;;;;;;5035390;28;20528;-64
2022/11/22 01:08:39;;;;;;;55.60;29.98;;;2.90;99.90;;;;;;5037632;28;20052;-66
2022/11/22 01:11:05;;;;;;;41.25;22.13;;;2.20;99.90;;;;;;5035913;28;20043;-64
2022/11/22 01:13:32;;;;;;;44.30;23.80;;;2.90;99.90;;;;;;5032988;28;20584;-63
2022/11/22 01:15:59;;;;;;;52.58;28.42;;;2.90;99.90;;;;;;5032663;28;20551;-63
2022/11/22 01:18:25;;;;;;;56.53;32.88;;;2.20;99.90;;;;;;5035388;28;20056;-64
2022/11/22 01:20:51;;;;;;;58.72;30.58;;;3.00;99.90;;;;;;5016076;28;20049;-63
2022/11/22 01:23:16;;;;;;;36.75;20.90;;;2.30;99.90;;;;;;5035023;28;20053;-64
2022/11/22 01:25:45;;;;;;;50.05;31.50;;;2.60;99.90;;;;;;5036352;28;20041;-63
2022/11/22 01:28:11;;;;;;;42.65;27.33;;;2.80;99.90;;;;;;5036173;28;20627;-64
2022/11/22 01:30:37;;;;;;;31.17;19.40;;;2.60;99.90;;;;;;5034124;28;20053;-63
2022/11/22 01:33:02;;;;;;;40.22;23.52;;;2.90;99.90;;;;;;5032674;28;20702;-64
2022/11/22 01:35:30;;;;;;;41.67;26.05;;;2.90;99.90;;;;;;5035108;28;20052;-64
2022/11/22 01:37:56;;;;;;;41.17;26.83;;;2.80;99.90;;;;;;5035303;28;20360;-64
2022/11/22 01:40:21;;;;;;;27.00;17.30;;;2.50;99.90;;;;;;5034917;28;20052;-63
2022/11/22 01:43:12;;;;;;;37.47;24.63;;;2.30;99.90;;;;;;5035710;28;20491;-64
2022/11/22 01:45:45;;;;;;;33.97;21.75;;;2.20;99.90;;;;;;5033819;28;20422;-63
2022/11/22 01:48:10;;;;;;;20.25;11.98;;;2.80;99.90;;;;;;5033301;28;20119;-63
2022/11/22 01:50:38;;;;;;;34.65;21.10;;;2.50;99.90;;;;;;5036117;28;20127;-64
2022/11/22 01:53:16;;;;;;;38.80;26.10;;;2.40;99.90;;;;;;5033622;28;20197;-65
2022/11/22 01:55:42;;;;;;;38.95;26.58;;;2.20;99.90;;;;;;5034650;28;20514;-64
2022/11/22 01:58:09;;;;;;;32.08;21.58;;;2.60;99.90;;;;;;5033981;28;20272;-66
2022/11/22 02:00:37;;;;;;;34.95;24.40;;;2.80;99.90;;;;;;5032608;28;20510;-63
2022/11/22 02:03:06;;;;;;;39.05;28.02;;;2.50;99.90;;;;;;5032861;28;20056;-64
2022/11/22 02:05:34;;;;;;;40.65;27.35;;;2.60;99.90;;;;;;5031914;28;20085;-64
2022/11/22 02:08:05;;;;;;;32.00;21.45;;;2.40;99.90;;;;;;5033735;28;20040;-65
2022/11/22 02:10:36;;;;;;;49.00;33.15;;;2.20;99.90;;;;;;5035285;28;20041;-64
2022/11/22 02:13:03;;;;;;;48.97;31.52;;;2.30;99.90;;;;;;5034698;28;20538;-64
2022/11/22 02:15:29;;;;;;;39.97;29.15;;;2.60;99.90;;;;;;5034773;28;20507;-64
2022/11/22 02:17:58;;;;;;;44.90;27.48;;;2.10;99.90;;;;;;5033610;28;20037;-64
2022/11/22 02:20:24;;;;;;;41.50;26.75;;;2.70;99.90;;;;;;5033419;28;20384;-64
2022/11/22 02:23:08;;;;;;;34.75;24.85;;;2.80;99.90;;;;;;5015532;28;20118;-64
2022/11/22 02:25:36;;;;;;;28.02;18.20;;;2.10;99.90;;;;;;5034223;28;20119;-65
2022/11/22 02:28:09;;;;;;;19.92;11.43;;;2.80;99.90;;;;;;5033412;28;20398;-65
2022/11/22 02:30:35;;;;;;;27.70;18.17;;;2.40;99.90;;;;;;5033086;28;20346;-64
2022/11/22 02:33:01;;;;;;;31.58;21.30;;;2.70;99.90;;;;;;5017345;28;20088;-64
2022/11/22 02:35:28;;;;;;;37.58;24.85;;;2.60;99.90;;;;;;5033009;28;20131;-63
2022/11/22 02:38:07;;;;;;;39.55;25.02;;;2.50;99.90;;;;;;5031645;28;20117;-63
2022/11/22 02:40:47;;;;;;;36.72;22.60;;;2.10;99.90;;;;;;5033822;28;20474;-64
2022/11/22 02:43:30;;;;;;;53.05;32.38;;;2.20;99.90;;;;;;5035182;28;20561;-64
2022/11/22 02:46:05;;;;;;;45.22;26.77;;;2.80;99.90;;;;;;5031252;28;20312;-64
2022/11/22 02:48:31;;;;;;;50.25;32.63;;;2.00;99.90;;;;;;5032380;28;20051;-65
2022/11/22 02:50:57;;;;;;;49.35;31.73;;;2.10;99.90;;;;;;5031745;28;20032;-64
2022/11/22 02:53:23;;;;;;;41.30;27.83;;;2.50;99.90;;;;;;5031627;28;20300;-63
2022/11/22 02:55:48;;;;;;;58.25;36.95;;;2.70;99.90;;;;;;5000709;28;20296;-66
2022/11/22 02:58:14;;;;;;;29.77;17.05;;;2.70;99.90;;;;;;5033859;28;20052;-64
2022/11/22 03:00:40;;;;;;;25.13;14.15;;;2.80;99.90;;;;;;5016637;28;20057;-64
2022/11/22 03:03:06;;;;;;;47.63;29.00;;;2.20;99.90;;;;;;5043266;28;20208;-65
2022/11/22 03:05:32;;;;;;;25.77;13.98;;;2.80;99.90;;;;;;5034553;28;20050;-65
2022/11/22 03:07:57;;;;;;;39.10;24.08;;;2.70;99.90;;;;;;5017834;28;20131;-65
2022/11/22 03:10:23;;;;;;;49.35;30.23;;;2.40;99.90;;;;;;5035124;28;20486;-65
2022/11/22 03:12:49;;;;;;;50.63;31.38;;;2.40;99.90;;;;;;5019329;28;20581;-65
2022/11/22 03:15:15;;;;;;;36.33;20.85;;;2.70;99.90;;;;;;5054659;28;20067;-64
2022/11/22 03:17:40;;;;;;;32.88;18.83;;;2.30;99.90;;;;;;5052886;28;20342;-65
2022/11/22 03:20:07;;;;;;;45.35;25.15;;;2.30;99.90;;;;;;5019989;28;20485;-65
2022/11/22 03:22:33;;;;;;;37.85;23.20;;;2.90;99.90;;;;;;5052198;28;20478;-65
2022/11/22 03:24:59;;;;;;;38.42;23.88;;;2.60;99.90;;;;;;5052729;28;20036;-64
2022/11/22 03:27:24;;;;;;;36.40;21.88;;;2.80;99.90;;;;;;5054742;28;20044;-64
2022/11/22 03:29:50;;;;;;;37.83;21.75;;;2.30;99.90;;;;;;5055113;28;20040;-64
2022/11/22 03:32:15;;;;;;;41.35;22.88;;;2.30;99.90;;;;;;5034241;28;20044;-65
2022/11/22 03:34:42;;;;;;;32.25;16.92;;;2.30;99.90;;;;;;5054535;28;20043;-63
2022/11/22 03:37:08;;;;;;;30.88;19.45;;;2.30;99.90;;;;;;5038518;28;20107;-64
2022/11/22 03:39:33;;;;;;;26.90;16.45;;;2.90;99.90;;;;;;5036828;28;20482;-64
2022/11/22 03:41:59;;;;;;;43.28;25.75;;;2.60;99.90;;;;;;5057550;28;20383;-63
2022/11/22 03:44:24;;;;;;;46.72;23.65;;;2.30;99.90;;;;;;5040333;28;20041;-64
2022/11/22 03:46:50;;;;;;;28.17;16.80;;;2.60;99.90;;;;;;5023852;28;20209;-65
2022/11/22 03:49:16;;;;;;;46.65;26.67;;;2.80;99.90;;;;;;5039079;28;20041;-64
2022/11/22 03:51:41;;;;;;;37.58;21.98;;;2.40;99.90;;;;;;5040349;28;20207;-64
2022/11/22 03:54:07;;;;;;;32.15;17.42;;;3.00;99.90;;;;;;5056560;28;20040;-64
2022/11/22 03:56:33;;;;;;;28.33;16.23;;;2.40;99.90;;;;;;5036869;28;20048;-64
2022/11/22 03:58:58;;;;;;;29.35;18.38;;;3.10;99.90;;;;;;5057431;28;20203;-64
2022/11/22 04:01:24;;;;;;;54.45;31.63;;;3.20;99.90;;;;;;5038851;28;20411;-63
2022/11/22 04:03:51;;;;;;;29.42;16.38;;;3.20;99.90;;;;;;5056517;28;20324;-63
2022/11/22 04:06:17;;;;;;;32.80;18.80;;;2.70;99.90;;;;;;5057438;28;20354;-63
2022/11/22 04:08:42;;;;;;;45.85;26.83;;;2.80;99.90;;;;;;5040278;28;20181;-63
2022/11/22 04:11:08;;;;;;;52.75;31.88;;;2.80;99.90;;;;;;5053482;28;20097;-64
2022/11/22 04:16:19;;;;;;;57.15;31.55;;;2.50;99.90;;;;;;5057930;28;20061;-63
2022/11/22 04:18:44;;;;;;;36.00;18.88;;;2.40;99.90;;;;;;5055384;28;20380;-64
2022/11/22 04:26:38;;;;;;;65.57;35.47;;;2.90;99.90;;;;;;5019939;28;20413;-64
2022/11/22 04:29:04;;;;;;;54.47;28.55;;;2.80;99.90;;;;;;5057319;28;20188;-64
2022/11/22 04:34:14;;;;;;;48.20;23.65;;;3.20;99.90;;;;;;5037378;28;20504;-64
2022/11/22 04:36:40;;;;;;;73.95;36.45;;;2.90;99.90;;;;;;5056081;28;20040;-65
2022/11/22 04:39:05;;;;;;;64.88;31.88;;;2.40;99.90;;;;;;5039318;28;20040;-64
2022/11/22 04:41:31;;;;;;;66.75;33.83;;;2.80;99.90;;;;;;5036650;28;20036;-65
2022/11/22 04:46:41;;;;;;;71.28;39.25;;;2.80;99.90;;;;;;5041132;28;20040;-67
2022/11/22 04:49:06;;;;;;;61.38;34.65;;;3.20;99.90;;;;;;5036867;28;20056;-64
2022/11/22 04:54:16;;;;;;;33.08;18.42;;;3.00;99.90;;;;;;5038443;28;20659;-63
2022/11/22 04:56:42;;;;;;;72.18;39.42;;;2.60;99.90;;;;;;5038688;28;20048;-63
2022/11/22 04:59:07;;;;;;;77.53;43.38;;;2.60;99.90;;;;;;5053963;28;20051;-64
2022/11/22 05:01:33;;;;;;;62.35;36.35;;;3.00;99.90;;;;;;5057127;28;20238;-65
2022/11/22 05:03:59;;;;;;;77.07;44.97;;;2.60;99.90;;;;;;5038318;28;20048;-64
2022/11/22 05:06:24;;;;;;;83.75;48.63;;;3.40;99.90;;;;;;5054379;28;20671;-63
2022/11/22 05:08:50;;;;;;;67.10;39.72;;;2.60;99.90;;;;;;5055958;28;20047;-64
2022/11/22 05:11:15;;;;;;;70.05;40.90;;;2.90;99.90;;;;;;5056258;28;20048;-64
2022/11/22 05:13:41;;;;;;;75.25;42.33;;;2.70;99.90;;;;;;5052610;28;20044;-64
2022/11/22 05:16:09;;;;;;;61.90;36.97;;;3.20;99.90;;;;;;5054747;28;20055;-64
2022/11/22 05:18:35;;;;;;;55.88;36.53;;;2.80;99.90;;;;;;5038168;28;20079;-65
2022/11/22 05:21:19;;;;;;;66.95;39.55;;;2.70;99.90;;;;;;5055257;28;20156;-64
2022/11/22 05:23:53;;;;;;;64.55;39.35;;;3.40;99.90;;;;;;5057121;28;20584;-64
2022/11/22 05:26:28;;;;;;;58.13;36.00;;;2.90;99.90;;;;;;5056408;28;20040;-64
2022/11/22 05:28:56;;;;;;;68.05;39.75;;;2.90;99.90;;;;;;5053159;28;20046;-66
2022/11/22 05:31:26;;;;;;;60.60;37.63;;;3.10;99.90;;;;;;5020007;28;20051;-65
2022/11/22 05:33:53;;;;;;;59.97;38.95;;;3.20;99.90;;;;;;5021482;28;20410;-64
2022/11/22 05:36:20;;;;;;;66.32;40.03;;;3.20;99.90;;;;;;5054300;28;20052;-64
2022/11/22 05:38:46;;;;;;;66.65;39.72;;;3.60;99.90;;;;;;5055623;28;20049;-64
2022/11/22 05:41:13;;;;;;;60.95;36.90;;;3.60;99.90;;;;;;5054529;28;20051;-63
2022/11/22 05:43:40;;;;;;;61.97;37.83;;;2.90;99.90;;;;;;5036917;28;20483;-64
2022/11/22 05:46:14;;;;;;;57.03;36.50;;;2.90;99.90;;;;;;5053652;28;20033;-64
2022/11/22 05:48:42;;;;;;;65.30;39.65;;;3.60;99.90;;;;;;5055493;28;20480;-64
2022/11/22 05:51:21;;;;;;;70.32;40.90;;;2.80;99.90;;;;;;5055600;28;20080;-64
2022/11/22 05:53:47;;;;;;;74.03;42.42;;;3.40;99.90;;;;;;5037683;28;20095;-64
2022/11/22 05:56:18;;;;;;;57.95;33.55;;;3.20;99.90;;;;;;5038428;28;20629;-64
2022/11/22 05:58:44;;;;;;;61.83;37.72;;;3.70;99.90;;;;;;5055336;28;20044;-64
2022/11/22 06:01:12;;;;;;;60.20;37.95;;;3.50;99.90;;;;;;5052475;28;20409;-64
2022/11/22 06:03:38;;;;;;;72.07;40.83;;;3.90;99.90;;;;;;5034337;28;20072;-64
2022/11/22 06:06:05;;;;;;;64.55;38.97;;;2.90;99.90;;;;;;5036052;28;20037;-64
2022/11/22 06:08:32;;;;;;;68.25;40.45;;;3.50;99.90;;;;;;5032877;28;20040;-64
2022/11/22 06:11:19;;;;;;;59.63;32.50;;;3.10;99.90;;;;;;5033724;28;20146;-63
2022/11/22 06:13:46;;;;;;;69.80;41.38;;;3.00;99.90;;;;;;5036110;28;20045;-63
2022/11/22 06:16:13;;;;;;;63.22;36.25;;;3.30;99.90;;;;;;5032266;28;20052;-64
2022/11/22 06:18:39;;;;;;;64.13;38.55;;;4.00;99.90;;;;;;5032469;28;20735;-65
2022/11/22 06:21:06;;;;;;;60.78;36.63;;;3.50;99.90;;;;;;5033588;28;20080;-65
2022/11/22 06:23:32;;;;;;;58.45;34.63;;;3.70;99.90;;;;;;5032062;28;20111;-65
2022/11/22 06:26:00;;;;;;;60.38;37.13;;;3.10;99.90;;;;;;5034742;28;20045;-64
2022/11/22 06:28:27;;;;;;;59.72;36.85;;;4.00;99.90;;;;;;5036114;28;20036;-63
2022/11/22 06:30:53;;;;;;;60.80;37.70;;;3.70;99.90;;;;;;5033987;28;20041;-63
2022/11/22 06:33:19;;;;;;;55.63;37.63;;;3.30;99.90;;;;;;5034625;28;20056;-63
2022/11/22 06:35:45;;;;;;;57.88;35.38;;;3.90;99.90;;;;;;5037066;28;20053;-64
2022/11/22 06:38:11;;;;;;;51.25;31.92;;;4.10;99.90;;;;;;5033254;28;20049;-63
2022/11/22 06:40:37;;;;;;;54.67;35.97;;;3.40;99.90;;;;;;5036535;28;20037;-64
2022/11/22 06:43:02;;;;;;;61.08;37.50;;;3.90;99.90;;;;;;5036907;28;20111;-65
2022/11/22 06:45:28;;;;;;;62.42;38.28;;;3.30;99.90;;;;;;5033727;28;20116;-65
2022/11/22 06:47:53;;;;;;;57.53;33.88;;;4.10;99.90;;;;;;5036563;28;20071;-66
2022/11/22 06:50:19;;;;;;;69.88;39.83;;;3.40;99.90;;;;;;5032006;28;20118;-66
2022/11/22 06:52:53;;;;;;;60.15;38.33;;;3.40;99.90;;;;;;5036974;28;20051;-63
2022/11/22 06:55:18;;;;;;;54.20;30.27;;;4.00;99.90;;;;;;5036901;28;20458;-64
2022/11/22 06:57:49;;;;;;;59.40;37.83;;;4.10;99.90;;;;;;5037681;28;20051;-63
2022/11/22 07:00:15;;;;;;;59.00;38.97;;;4.30;99.90;;;;;;5037306;28;20047;-62
2022/11/22 07:02:41;;;;;;;56.58;37.10;;;3.60;99.90;;;;;;5036398;28;20040;-64
2022/11/22 07:05:07;;;;;;;56.38;35.00;;;3.40;99.90;;;;;;5056389;28;20067;-65
2022/11/22 07:07:33;;;;;;;55.72;35.50;;;4.30;99.90;;;;;;5037765;28;20085;-66
2022/11/22 07:09:58;;;;;;;54.58;36.17;;;3.80;99.90;;;;;;5054423;28;20119;-64
2022/11/22 07:12:25;;;;;;;63.38;37.75;;;4.40;99.90;;;;;;5060842;28;20036;-64
2022/11/22 07:14:50;;;;;;;61.22;38.83;;;4.40;99.90;;;;;;5060419;28;20059;-64
2022/11/22 07:17:16;;;;;;;60.70;38.25;;;4.30;99.90;;;;;;5060569;28;20044;-65
2022/11/22 07:19:42;;;;;;;62.05;39.35;;;4.40;99.90;;;;;;5044275;28;20048;-65
2022/11/22 07:22:07;;;;;;;59.65;38.47;;;4.30;99.90;;;;;;5042891;28;20044;-64
2022/11/22 07:24:33;;;;;;;65.80;39.33;;;4.00;99.90;;;;;;5061366;28;20037;-63
2022/11/22 07:26:58;;;;;;;57.13;36.97;;;3.50;99.90;;;;;;5042522;28;20430;-62
2022/11/22 07:29:24;;;;;;;67.88;39.53;;;3.50;99.90;;;;;;5060498;28;20043;-66
2022/11/22 07:31:50;;;;;;;58.25;36.55;;;3.50;99.90;;;;;;5024705;28;20051;-65
2022/11/22 07:34:15;;;;;;;54.05;33.60;;;3.60;99.90;;;;;;5025580;28;20040;-63
2022/11/22 07:36:41;;;;;;;58.33;38.15;;;4.40;99.90;;;;;;5039255;28;20201;-64
2022/11/22 07:39:07;;;;;;;61.83;39.72;;;3.90;99.90;;;;;;5041173;28;20052;-65
2022/11/22 07:41:32;;;;;;;62.80;39.00;;;3.90;99.90;;;;;;5023324;28;20106;-64
2022/11/22 07:43:58;;;;;;;56.70;36.05;;;3.60;99.90;;;;;;5041322;28;20477;-65
2022/11/22 07:46:28;;;;;;;62.00;38.97;;;4.50;99.90;;;;;;5057058;28;20071;-64
2022/11/22 07:48:54;;;;;;;58.42;38.00;;;4.40;99.90;;;;;;5038993;28;20040;-64
2022/11/22 07:51:20;;;;;;;60.58;36.38;;;3.80;99.90;;;;;;5060833;28;20262;-66
2022/11/22 07:53:46;;;;;;;61.22;38.75;;;3.80;99.90;;;;;;5041124;28;20070;-65
2022/11/22 07:56:12;;;;;;;56.75;36.92;;;3.70;99.90;;;;;;5041490;28;20420;-65
2022/11/22 07:58:38;;;;;;;58.42;37.90;;;4.50;99.90;;;;;;5061228;28;20071;-65
2022/11/22 08:01:09;;;;;;;62.97;39.50;;;4.00;99.90;;;;;;5057150;28;20191;-64
2022/11/22 08:03:35;;;;;;;57.05;38.13;;;4.60;99.90;;;;;;5055058;28;20577;-64
2022/11/22 08:06:02;;;;;;;62.10;38.33;;;4.60;99.90;;;;;;5023379;28;20485;-65
2022/11/22 08:08:29;;;;;;;58.10;36.78;;;3.90;99.90;;;;;;5054451;28;20036;-65
2022/11/22 08:10:54;;;;;;;61.70;34.30;;;4.40;99.90;;;;;;5037145;28;20110;-66
2022/11/22 08:13:20;;;;;;;60.90;36.72;;;4.40;99.90;;;;;;5030693;28;20659;-65
2022/11/22 08:15:48;;;;;;;58.13;36.13;;;4.30;99.90;;;;;;5057095;28;20273;-65
2022/11/22 08:18:14;;;;;;;58.83;36.70;;;4.30;99.90;;;;;;5054842;28;20225;-65
2022/11/22 08:20:39;;;;;;;59.15;36.22;;;4.00;99.90;;;;;;5038369;28;20049;-66
2022/11/22 08:23:05;;;;;;;53.75;33.35;;;3.90;99.90;;;;;;5038912;28;20051;-66
2022/11/22 08:25:31;;;;;;;56.75;34.35;;;4.80;99.90;;;;;;5035170;28;20048;-67
2022/11/22 08:27:57;;;;;;;53.67;33.85;;;4.30;99.90;;;;;;5044531;28;20486;-65
2022/11/22 08:30:22;;;;;;;49.88;30.98;;;4.50;99.90;;;;;;5038288;28;20184;-65
2022/11/22 08:32:50;;;;;;;52.80;34.25;;;4.70;99.90;;;;;;5037019;28;20188;-65
2022/11/22 08:35:16;;;;;;;51.47;32.88;;;4.60;99.90;;;;;;5021020;28;20208;-66
2022/11/22 08:37:41;;;;;;;47.05;33.45;;;4.40;99.90;;;;;;5038778;28;20268;-64
2022/11/22 08:40:08;;;;;;;51.40;33.38;;;4.90;99.90;;;;;;5034935;28;20529;-65
2022/11/22 08:42:33;;;;;;;49.95;31.35;;;5.10;99.90;;;;;;5035362;28;20285;-65
2022/11/22 08:44:59;;;;;;;47.72;31.33;;;4.50;99.90;;;;;;5037451;28;20317;-65
2022/11/22 08:47:25;;;;;;;45.20;30.25;;;5.00;99.90;;;;;;5037494;28;20464;-64
2022/11/22 08:49:50;;;;;;;46.47;30.65;;;4.40;99.90;;;;;;5054688;28;20668;-65
2022/11/22 08:52:16;;;;;;;47.15;29.27;;;5.30;99.90;;;;;;5056150;28;20044;-66
2022/11/22 08:54:42;;;;;;;44.55;29.15;;;5.10;99.90;;;;;;5055191;28;20039;-66
2022/11/22 08:57:07;;;;;;;43.85;25.63;;;5.40;99.90;;;;;;5035629;28;20041;-65
2022/11/22 08:59:33;;;;;;;37.45;26.35;;;5.40;99.90;;;;;;5039766;28;20066;-66
2022/11/22 09:01:59;;;;;;;47.08;28.58;;;5.30;99.90;;;;;;5039746;28;20060;-66
2022/11/22 09:04:25;;;;;;;40.47;25.55;;;5.40;99.90;;;;;;5057620;28;20570;-66
2022/11/22 09:06:51;;;;;;;41.85;23.75;;;5.10;99.90;;;;;;5056954;28;20492;-64
2022/11/22 09:09:16;;;;;;;43.38;25.27;;;5.10;99.90;;;;;;5040130;28;20310;-64
2022/11/22 09:11:42;;;;;;;38.38;24.08;;;5.50;99.90;;;;;;5054929;28;20063;-64
2022/11/22 09:14:08;;;;;;;32.75;23.23;;;5.60;99.90;;;;;;5038924;28;20044;-65
2022/11/22 09:16:33;;;;;;;37.15;21.90;;;5.20;99.90;;;;;;5006060;28;20186;-66
2022/11/22 09:18:59;;;;;;;28.58;19.13;;;5.30;99.90;;;;;;5040049;28;20036;-66
2022/11/22 09:21:25;;;;;;;40.75;22.85;;;5.60;99.90;;;;;;5003980;28;20288;-65
2022/11/22 09:23:53;;;;;;;30.08;20.67;;;5.70;99.90;;;;;;5040000;28;20053;-65
2022/11/22 09:26:20;;;;;;;33.35;20.90;;;5.40;99.90;;;;;;5039072;28;20111;-66
2022/11/22 09:28:46;;;;;;;33.05;20.83;;;5.40;99.90;;;;;;5035377;28;20028;-65
2022/11/22 09:31:17;;;;;;;27.77;16.45;;;5.50;99.90;;;;;;5022177;28;20101;-65
2022/11/22 09:33:45;;;;;;;26.33;15.95;;;6.10;99.90;;;;;;5038919;28;20712;-65
2022/11/22 09:36:17;;;;;;;27.75;17.17;;;6.00;99.90;;;;;;5037683;28;20054;-65
2022/11/22 09:38:43;;;;;;;25.73;15.40;;;5.60;99.90;;;;;;5039351;28;20088;-65
2022/11/22 09:41:15;;;;;;;24.48;12.15;;;5.80;99.90;;;;;;5056824;28;20484;-66
2022/11/22 09:44:05;;;;;;;24.00;12.77;;;5.80;99.90;;;;;;5018395;28;20052;-65
2022/11/22 09:46:44;;;;;;;19.85;11.90;;;6.10;99.90;;;;;;5038493;28;20044;-65
2022/11/22 09:49:22;;;;;;;22.60;9.77;;;5.90;99.90;;;;;;5039305;28;20090;-65
2022/11/22 09:51:56;;;;;;;15.98;7.95;;;6.30;99.90;;;;;;5020462;28;20485;-65
2022/11/22 09:54:24;;;;;;;;;;;6.00;99.90;;;;;;5057547;28;20794;-65
2022/11/22 09:56:54;;;;;;;17.33;8.35;;;6.00;99.90;;;;;;5038048;28;20230;-65
2022/11/22 09:59:28;;;;;;;16.75;7.25;;;6.00;99.90;;;;;;5034852;28;20124;-65
2022/11/22 10:02:07;;;;;;;17.55;5.43;;;6.00;99.90;;;;;;5055126;28;20056;-64
2022/11/22 10:04:56;;;;;;;19.77;4.97;;;6.30;99.90;;;;;;5058921;28;20143;-63
2022/11/22 10:07:35;;;;;;;18.38;4.68;;;6.50;99.90;;;;;;5056305;28;20596;-64
2022/11/22 10:10:11;;;;;;;15.90;4.07;;;6.40;99.90;;;;;;5058349;28;21273;-65
2022/11/22 10:13:01;;;;;;;13.93;3.63;;;6.50;99.90;;;;;;5056287;28;20121;-64
2022/11/22 10:15:54;;;;;;;14.07;3.00;;;6.60;99.90;;;;;;5035311;28;20498;-64
2022/11/22 10:18:37;;;;;;;13.90;2.50;;;6.50;99.90;;;;;;5056214;28;20048;-64
2022/11/22 10:21:03;;;;;;;18.03;3.60;;;6.40;99.90;;;;;;5055949;28;20075;-64
2022/11/22 10:23:31;;;;;;;14.27;2.97;;;6.60;99.90;;;;;;5038252;28;20279;-64
2022/11/22 10:26:10;;;;;;;15.68;2.60;;;6.40;99.90;;;;;;5056764;28;20513;-65
2022/11/22 10:28:59;;;;;;;14.63;2.20;;;6.70;99.90;;;;;;5038198;28;20489;-65
2022/11/22 10:31:27;;;;;;;12.32;2.28;;;6.60;99.90;;;;;;5033967;28;20047;-65
2022/11/22 10:34:23;;;;;;;13.63;2.15;;;6.40;99.90;;;;;;5038501;28;20044;-65
2022/11/22 10:37:02;;;;;;;13.52;1.77;;;6.50;99.90;;;;;;5038493;28;20622;-65
2022/11/22 10:39:31;;;;;;;10.18;1.67;;;6.50;99.90;;;;;;5036574;28;20101;-64
2022/11/22 10:42:16;;;;;;;15.40;1.73;;;6.50;99.90;;;;;;5021689;28;20260;-65
2022/11/22 10:45:09;;;;;;;10.02;1.63;;;6.60;99.90;;;;;;5055662;28;20913;-64
2022/11/22 10:47:38;;;;;;;10.68;1.90;;;6.50;99.90;;;;;;5052687;28;20106;-65
2022/11/22 10:50:28;;;;;;;12.10;1.60;;;6.40;99.90;;;;;;5056257;28;20437;-65
2022/11/22 10:53:15;;;;;;;12.07;1.55;;;6.50;99.90;;;;;;5019242;28;20041;-64
2022/11/22 10:56:04;;;;;;;16.25;1.80;;;6.60;99.90;;;;;;5021031;28;20048;-64
2022/11/22 10:59:09;;;;;;;15.75;1.95;;;6.60;99.90;;;;;;5020728;28;20056;-65
2022/11/22 11:01:58;;;;;;;12.00;1.40;;;6.70;99.90;;;;;;4969779;28;20052;-64
2022/11/22 11:04:30;;;;;;;11.05;1.77;;;6.60;99.90;;;;;;5036516;28;20060;-64
2022/11/22 11:06:57;;;;;;;10.98;2.15;;;6.80;99.90;;;;;;5056316;28;20048;-65
2022/11/22 11:09:35;;;;;;;12.18;1.48;;;6.70;99.90;;;;;;5019551;28;20459;-64
2022/11/22 11:12:09;;;;;;;12.27;1.30;;;6.80;99.90;;;;;;5024489;28;20678;-63
2022/11/22 11:14:40;;;;;;;7.90;1.08;;;6.80;99.90;;;;;;5055200;28;20041;-64
2022/11/22 11:17:06;;;;;;;9.13;1.52;;;6.80;99.90;;;;;;5020178;28;20032;-64
2022/11/22 11:19:37;;;;;;;9.18;1.08;;;6.70;99.90;;;;;;5054044;28;20185;-64
2022/11/22 11:22:06;;;;;;;11.25;1.25;;;6.80;99.90;;;;;;5038981;28;20464;-64
2022/11/22 11:24:32;;;;;;;6.35;0.93;;;6.90;99.90;;;;;;5053890;28;20047;-63
2022/11/22 11:26:59;;;;;;;7.90;0.75;;;6.90;99.90;;;;;;5024039;28;20502;-65
2022/11/22 11:29:39;;;;;;;10.68;1.08;;;7.00;99.90;;;;;;5021784;28;20552;-64
2022/11/22 11:32:23;;;;;;;10.00;0.90;;;7.10;99.90;;;;;;5053220;28;20624;-64
2022/11/22 11:34:54;;;;;;;;;;;7.20;99.90;;;;;;5035003;28;20048;-66
2022/11/22 11:37:30;;;;;;;7.60;0.68;;;7.30;99.90;;;;;;5021057;28;19920;-64
2022/11/22 11:39:56;;;;;;;7.22;0.98;;;8.40;99.90;;;;;;5053775;28;20048;-64
2022/11/22 11:42:30;;;;;;;6.32;0.85;;;9.40;99.90;;;;;;5055775;28;20091;-64
2022/11/22 11:45:14;;;;;;;8.27;0.82;;;10.10;99.90;;;;;;5055120;28;20037;-64
2022/11/22 11:47:40;;;;;;;7.25;0.90;;;10.20;99.90;;;;;;5053223;28;20048;-64
2022/11/22 11:50:21;;;;;;;5.60;0.88;;;10.70;99.90;;;;;;5034728;28;20048;-64
2022/11/22 11:52:52;;;;;;;7.55;0.90;;;11.00;99.90;;;;;;5055189;28;20052;-64
2022/11/22 11:55:18;;;;;;;8.10;1.13;;;11.10;99.90;;;;;;5035885;28;20050;-65
2022/11/22 11:57:44;;;;;;;8.13;1.08;;;11.20;99.90;;;;;;5038725;28;20130;-65
2022/11/22 12:00:26;;;;;;;8.35;0.95;;;11.20;99.90;;;;;;5058764;28;20513;-65
2022/11/22 12:03:00;;;;;;;6.22;0.68;;;10.50;99.90;;;;;;5028048;28;20037;-65
2022/11/22 12:05:29;;;;;;;7.47;0.98;;;9.50;99.90;;;;;;5022737;28;20323;-66
2022/11/22 12:07:55;;;;;;;8.48;0.93;;;9.00;99.90;;;;;;5040329;28;20481;-65
2022/11/22 12:10:30;;;;;;;6.53;0.70;;;8.50;99.90;;;;;;5055003;28;20040;-66
2022/11/22 12:13:29;;;;;;;8.82;0.82;;;8.20;99.90;;;;;;5058763;28;20111;-66
2022/11/22 12:16:03;;;;;;;8.85;0.77;;;7.90;99.90;;;;;;5058871;28;20120;-66
2022/11/22 12:18:57;;;;;;;7.80;1.00;;;7.80;99.90;;;;;;5039085;28;20185;-66
2022/11/22 12:21:41;;;;;;;6.80;0.85;;;7.70;99.90;;;;;;5056015;28;20529;-66
2022/11/22 12:24:11;;;;;;;8.02;0.80;;;7.70;99.90;;;;;;5023818;28;20297;-66
2022/11/22 12:26:37;;;;;;;8.27;1.00;;;7.70;99.90;;;;;;5056981;28;20078;-66
2022/11/22 12:29:04;;;;;;;7.82;0.85;;;7.70;99.90;;;;;;5040086;28;20828;-66
2022/11/22 12:31:48;;;;;;;7.35;0.90;;;7.70;99.90;;;;;;5024260;28;20261;-66
2022/11/22 12:34:33;;;;;;;5.78;0.75;;;7.70;99.90;;;;;;5028975;28;20040;-65
2022/11/22 12:37:05;;;;;;;8.98;1.02;;;7.80;99.90;;;;;;5038977;28;20057;-65
2022/11/22 12:39:34;;;;;;;7.43;0.90;;;7.80;99.90;;;;;;5023401;28;20228;-66
2022/11/22 12:42:06;;;;;;;5.30;0.93;;;7.70;99.90;;;;;;5056440;28;20071;-63
2022/11/22 12:44:39;;;;;;;9.63;1.33;;;7.70;99.90;;;;;;5058961;28;20670;-64
2022/11/22 12:47:14;;;;;;;10.57;0.90;;;7.80;99.90;;;;;;5040270;28;20052;-64
2022/11/22 12:50:04;;;;;;;6.50;0.80;;;7.80;99.90;;;;;;5038717;28;20032;-64
2022/11/22 12:52:42;;;;;;;8.43;1.08;;;7.90;99.90;;;;;;5040748;28;20086;-65
2022/11/22 12:55:26;;;;;;;8.45;0.90;;;7.80;99.90;;;;;;5039654;28;20052;-66
2022/11/22 12:57:54;;;;;;;;;;;7.80;99.90;;;;;;5038942;28;20374;-67
2022/11/22 13:00:23;;;;;;;9.95;1.00;;;7.70;99.90;;;;;;5023078;28;20360;-66
2022/11/22 13:02:48;;;;;;;6.63;0.80;;;7.70;99.90;;;;;;5022821;28;20052;-65
2022/11/22 13:05:25;;;;;;;7.53;0.88;;;7.70;99.90;;;;;;5037757;28;20044;-66
2022/11/22 13:08:20;;;;;;;7.93;0.80;;;7.70;99.90;;;;;;5039540;28;20052;-66